Henan, China
Current Conditions -  °F | °C
As of 6:00 PM on Friday 24 Oct 2014 (Local Time) from ZLLL Reporting Station
Clear Clear  
Wind Chill: 63°   Ceiling: Unl
Heat Index: 63°   Visibility: 6mi
Dew Point: 30°   Wind: 4mph
Humidity: 30%   Direction: 130°SE
Pressure: 30.06"   Gusts: NA
Location:  34.73°N, 101.6°E
Report Text: ZLLL 241000Z 13002MPS CAVOK 17/M01 Q1018 NOSIG
Loading
Personal Weather Stations






























Interactive Weather Map
Tropical Storm Tracking
New forecast layout! Learn more

10-Day Weather Forecast

Advertisements
Track Severe Weather on mobile